Time,TemperatureF,DewpointF,PressureIn,WindDirection,WindDirectionDegrees,WindSpeedMPH,WindSpeedGustMPH,Humidity,HourlyPrecipIn,Conditions,Clouds,dailyrainin,SoftwareType,DateUTC
2013-08-14 00:01:00,55.9,51.5,30.16,NE,53,0.0,3.0,85,0.00,,,0.00,Wunderground v.1.15,2013-08-14 05:01:00,
2013-08-14 00:07:00,56.7,51.6,30.16,NE,53,1.0,1.0,83,0.00,,,0.00,Wunderground v.1.15,2013-08-14 05:07:00,
2013-08-14 00:12:00,57.0,51.6,30.17,NE,53,2.0,2.0,82,0.00,,,0.00,Wunderground v.1.15,2013-08-14 05:12:00,
2013-08-14 00:18:00,56.7,51.3,30.17,NE,53,1.0,1.0,82,0.00,,,0.00,Wunderground v.1.15,2013-08-14 05:18:00,
2013-08-14 00:24:00,56.2,51.1,30.17,NE,53,1.0,1.0,83,0.00,,,0.00,Wunderground v.1.15,2013-08-14 05:24:00,
2013-08-14 00:30:00,55.9,51.1,30.17,NE,53,1.0,1.0,84,0.00,,,0.00,Wunderground v.1.15,2013-08-14 05:30:00,
2013-08-14 00:36:00,55.9,51.1,30.17,NE,49,1.0,1.0,84,0.00,,,0.00,Wunderground v.1.15,2013-08-14 05:36:00,
2013-08-14 00:42:00,55.8,51.0,30.17,NE,49,1.0,1.0,84,0.00,,,0.00,Wunderground v.1.15,2013-08-14 05:42:00,
2013-08-14 00:48:00,55.7,50.9,30.17,NE,49,2.0,2.0,84,0.00,,,0.00,Wunderground v.1.15,2013-08-14 05:48:00,
2013-08-14 00:53:00,55.6,50.8,30.17,NE,46,2.0,2.0,84,0.00,,,0.00,Wunderground v.1.15,2013-08-14 05:53:00,
2013-08-14 00:59:00,55.4,50.6,30.17,NE,47,2.0,2.0,84,0.00,,,0.00,Wunderground v.1.15,2013-08-14 05:59:00,
2013-08-14 01:05:00,55.4,51.0,30.17,NE,44,2.0,2.0,85,0.00,,,0.00,Wunderground v.1.15,2013-08-14 06:05:00,
2013-08-14 01:10:00,55.4,50.6,30.17,NE,48,2.0,2.0,84,0.00,,,0.00,Wunderground v.1.15,2013-08-14 06:10:00,
2013-08-14 01:16:00,55.3,50.5,30.16,NNE,24,2.0,2.0,84,0.00,,,0.00,Wunderground v.1.15,2013-08-14 06:16:00,
2013-08-14 01:21:00,55.3,50.5,30.16,NNE,27,2.0,2.0,84,0.00,,,0.00,Wunderground v.1.15,2013-08-14 06:21:00,
2013-08-14 01:26:00,55.0,50.6,30.16,NE,42,2.0,2.0,85,0.00,,,0.00,Wunderground v.1.15,2013-08-14 06:26:00,
2013-08-14 01:32:00,55.2,50.4,30.16,NE,44,1.0,2.0,84,0.00,,,0.00,Wunderground v.1.15,2013-08-14 06:32:00,
2013-08-14 01:38:00,55.1,50.4,30.16,NE,44,1.0,2.0,84,0.00,,,0.00,Wunderground v.1.15,2013-08-14 06:38:00,
2013-08-14 01:43:00,54.7,50.3,30.16,NE,44,2.0,2.0,85,0.00,,,0.00,Wunderground v.1.15,2013-08-14 06:43:00,
2013-08-14 01:49:00,55.2,50.4,30.16,NE,44,1.0,2.0,84,0.00,,,0.00,Wunderground v.1.15,2013-08-14 06:49:00,
2013-08-14 01:55:00,54.9,49.8,30.16,SSW,194,1.0,1.0,83,0.00,,,0.00,Wunderground v.1.15,2013-08-14 06:55:00,
2013-08-14 02:00:00,53.9,49.8,30.16,SSW,194,0.0,2.0,86,0.00,,,0.00,Wunderground v.1.15,2013-08-14 07:00:00,
2013-08-14 02:05:00,54.6,50.2,30.16,SSW,194,0.0,0.0,85,0.00,,,0.00,Wunderground v.1.15,2013-08-14 07:05:00,
2013-08-14 02:10:00,54.8,50.1,30.16,SSW,194,1.0,2.0,84,0.00,,,0.00,Wunderground v.1.15,2013-08-14 07:10:00,
2013-08-14 02:15:00,54.6,50.5,30.17,SSW,194,1.0,1.0,86,0.00,,,0.00,Wunderground v.1.15,2013-08-14 07:15:00,
2013-08-14 02:20:00,54.6,50.5,30.17,SSW,194,0.0,2.0,86,0.00,,,0.00,Wunderground v.1.15,2013-08-14 07:20:00,
2013-08-14 02:25:00,54.7,50.3,30.17,SE,134,2.0,2.0,85,0.00,,,0.00,Wunderground v.1.15,2013-08-14 07:25:00,
2013-08-14 02:30:00,54.8,50.1,30.17,SSE,161,0.0,2.0,84,0.00,,,0.00,Wunderground v.1.15,2013-08-14 07:30:00,
2013-08-14 02:35:00,54.9,50.5,30.17,SSE,161,0.0,1.0,85,0.00,,,0.00,Wunderground v.1.15,2013-08-14 07:35:00,
2013-08-14 02:40:00,54.5,49.8,30.17,SSE,161,1.0,1.0,84,0.00,,,0.00,Wunderground v.1.15,2013-08-14 07:40:00,
2013-08-14 02:45:00,53.9,49.5,30.17,SSE,161,1.0,2.0,85,0.00,,,0.00,Wunderground v.1.15,2013-08-14 07:45:00,
2013-08-14 02:50:00,53.2,49.4,30.17,SSE,161,0.0,2.0,87,0.00,,,0.00,Wunderground v.1.15,2013-08-14 07:50:00,
2013-08-14 02:55:00,53.5,49.7,30.17,SSE,161,0.0,1.0,87,0.00,,,0.00,Wunderground v.1.15,2013-08-14 07:55:00,
2013-08-14 03:00:00,54.0,49.9,30.17,SSE,161,0.0,1.0,86,0.00,,,0.00,Wunderground v.1.15,2013-08-14 08:00:00,
2013-08-14 03:05:00,53.9,49.8,30.17,SSE,161,1.0,1.0,86,0.00,,,0.00,Wunderground v.1.15,2013-08-14 08:05:00,
2013-08-14 03:10:00,53.6,49.5,30.17,SSE,161,0.0,1.0,86,0.00,,,0.00,Wunderground v.1.15,2013-08-14 08:10:00,
2013-08-14 03:15:00,53.9,50.1,30.17,SSE,161,0.0,0.0,87,0.00,,,0.00,Wunderground v.1.15,2013-08-14 08:15:00,
2013-08-14 03:20:00,53.8,50.0,30.17,SSE,161,0.0,0.0,87,0.00,,,0.00,Wunderground v.1.15,2013-08-14 08:20:00,
2013-08-14 03:25:00,53.6,50.1,30.17,SSE,161,0.0,0.0,88,0.00,,,0.00,Wunderground v.1.15,2013-08-14 08:25:00,
2013-08-14 03:30:00,53.1,49.3,30.17,SSE,161,1.0,1.0,87,0.00,,,0.00,Wunderground v.1.15,2013-08-14 08:30:00,
2013-08-14 03:35:00,52.2,48.8,30.16,SSE,161,2.0,2.0,88,0.00,,,0.00,Wunderground v.1.15,2013-08-14 08:35:00,
2013-08-14 03:40:00,51.2,48.1,30.16,SSE,161,1.0,2.0,89,0.00,,,0.00,Wunderground v.1.15,2013-08-14 08:40:00,
2013-08-14 03:45:00,50.8,48.3,30.16,SSE,161,1.0,1.0,91,0.00,,,0.00,Wunderground v.1.15,2013-08-14 08:45:00,
2013-08-14 03:50:00,51.0,48.8,30.16,SSE,161,0.0,1.0,92,0.00,,,0.00,Wunderground v.1.15,2013-08-14 08:50:00,
2013-08-14 03:55:00,51.2,49.0,30.16,SSE,161,1.0,1.0,92,0.00,,,0.00,Wunderground v.1.15,2013-08-14 08:55:00,
2013-08-14 04:00:00,51.4,49.2,30.17,SSE,161,0.0,1.0,92,0.00,,,0.00,Wunderground v.1.15,2013-08-14 09:00:00,
2013-08-14 04:05:00,51.6,49.1,30.17,SSE,161,0.0,0.0,91,0.00,,,0.00,Wunderground v.1.15,2013-08-14 09:05:00,
2013-08-14 04:10:00,51.7,49.2,30.17,SSE,161,0.0,0.0,91,0.00,,,0.00,Wunderground v.1.15,2013-08-14 09:10:00,
2013-08-14 04:15:00,51.6,48.8,30.17,SSE,161,0.0,0.0,90,0.00,,,0.00,Wunderground v.1.15,2013-08-14 09:15:00,
2013-08-14 04:20:00,51.3,48.5,30.17,SSE,161,1.0,2.0,90,0.00,,,0.00,Wunderground v.1.15,2013-08-14 09:20:00,
2013-08-14 04:25:00,50.8,48.3,30.17,SSE,161,0.0,1.0,91,0.00,,,0.00,Wunderground v.1.15,2013-08-14 09:25:00,
2013-08-14 04:30:00,50.8,48.6,30.17,SSE,161,0.0,1.0,92,0.00,,,0.00,Wunderground v.1.15,2013-08-14 09:30:00,
2013-08-14 04:35:00,51.0,48.8,30.17,SSE,161,0.0,0.0,92,0.00,,,0.00,Wunderground v.1.15,2013-08-14 09:35:00,
2013-08-14 04:40:00,51.2,49.0,30.17,SSE,161,1.0,2.0,92,0.00,,,0.00,Wunderground v.1.15,2013-08-14 09:40:00,
2013-08-14 04:45:00,51.4,49.4,30.17,SSE,161,1.0,1.0,93,0.00,,,0.00,Wunderground v.1.15,2013-08-14 09:45:00,
2013-08-14 04:51:00,51.6,49.4,30.17,ESE,123,0.0,1.0,92,0.00,,,0.00,Wunderground v.1.15,2013-08-14 09:51:00,
2013-08-14 04:56:00,52.0,49.7,30.17,SE,139,1.0,2.0,92,0.00,,,0.00,Wunderground v.1.15,2013-08-14 09:56:00,
2013-08-14 05:01:00,52.6,50.0,30.17,SSE,161,1.0,2.0,91,0.00,,,0.00,Wunderground v.1.15,2013-08-14 10:01:00,
2013-08-14 05:06:00,53.0,50.1,30.17,ESE,119,1.0,2.0,90,0.00,,,0.00,Wunderground v.1.15,2013-08-14 10:06:00,
2013-08-14 05:11:00,53.0,50.1,30.17,SE,140,1.0,2.0,90,0.00,,,0.00,Wunderground v.1.15,2013-08-14 10:11:00,
2013-08-14 05:16:00,52.8,49.6,30.16,ESE,122,1.0,1.0,89,0.00,,,0.00,Wunderground v.1.15,2013-08-14 10:16:00,
2013-08-14 05:21:00,52.4,49.6,30.16,ENE,71,2.0,2.0,90,0.00,,,0.00,Wunderground v.1.15,2013-08-14 10:21:00,
2013-08-14 05:26:00,52.1,49.3,30.16,ENE,76,1.0,2.0,90,0.00,,,0.00,Wunderground v.1.15,2013-08-14 10:26:00,
2013-08-14 05:31:00,51.6,48.8,30.16,ENE,76,1.0,2.0,90,0.00,,,0.00,Wunderground v.1.15,2013-08-14 10:31:00,
2013-08-14 05:36:00,51.5,49.0,30.17,ESE,107,0.0,1.0,91,0.00,,,0.00,Wunderground v.1.15,2013-08-14 10:36:00,
2013-08-14 05:41:00,51.5,49.0,30.17,SE,124,1.0,1.0,91,0.00,,,0.00,Wunderground v.1.15,2013-08-14 10:41:00,
2013-08-14 05:46:00,51.8,49.5,30.17,SE,140,0.0,3.0,92,0.00,,,0.00,Wunderground v.1.15,2013-08-14 10:46:00,
2013-08-14 05:51:00,52.0,49.5,30.17,ESE,123,0.0,3.0,91,0.00,,,0.00,Wunderground v.1.15,2013-08-14 10:51:00,
2013-08-14 05:56:00,51.9,49.4,30.17,ESE,122,0.0,2.0,91,0.00,,,0.00,Wunderground v.1.15,2013-08-14 10:56:00,
2013-08-14 06:01:00,51.9,49.4,30.17,ESE,113,1.0,3.0,91,0.00,,,0.00,Wunderground v.1.15,2013-08-14 11:01:00,
2013-08-14 06:06:00,51.7,49.2,30.17,ESE,119,0.0,1.0,91,0.00,,,0.00,Wunderground v.1.15,2013-08-14 11:06:00,
2013-08-14 06:11:00,51.8,49.3,30.17,ESE,119,0.0,1.0,91,0.00,,,0.00,Wunderground v.1.15,2013-08-14 11:11:00,
2013-08-14 06:16:00,51.8,49.3,30.17,ESE,120,0.0,0.0,91,0.00,,,0.00,Wunderground v.1.15,2013-08-14 11:16:00,
2013-08-14 06:21:00,51.5,49.3,30.17,ESE,122,0.0,2.0,92,0.00,,,0.00,Wunderground v.1.15,2013-08-14 11:21:00,
2013-08-14 06:26:00,51.4,48.9,30.17,ESE,122,0.0,1.0,91,0.00,,,0.00,Wunderground v.1.15,2013-08-14 11:26:00,
2013-08-14 06:31:00,51.4,49.2,30.17,ESE,122,0.0,1.0,92,0.00,,,0.00,Wunderground v.1.15,2013-08-14 11:31:00,
2013-08-14 06:36:00,51.4,48.9,30.18,ESE,122,0.0,1.0,91,0.00,,,0.00,Wunderground v.1.15,2013-08-14 11:36:00,
2013-08-14 06:41:00,50.9,48.4,30.18,ESE,122,1.0,1.0,91,0.00,,,0.00,Wunderground v.1.15,2013-08-14 11:41:00,
2013-08-14 06:46:00,50.5,48.0,30.18,ESE,122,0.0,0.0,91,0.00,,,0.00,Wunderground v.1.15,2013-08-14 11:46:00,
2013-08-14 06:52:00,50.0,47.5,30.18,ESE,122,0.0,0.0,91,0.00,,,0.00,Wunderground v.1.15,2013-08-14 11:52:00,
2013-08-14 06:57:00,50.2,48.3,30.18,ESE,122,0.0,0.0,93,0.00,,,0.00,Wunderground v.1.15,2013-08-14 11:57:00,
2013-08-14 07:02:00,51.0,49.0,30.18,ESE,122,1.0,1.0,93,0.00,,,0.00,Wunderground v.1.15,2013-08-14 12:02:00,
2013-08-14 07:07:00,51.9,49.6,30.18,ESE,122,0.0,1.0,92,0.00,,,0.00,Wunderground v.1.15,2013-08-14 12:07:00,
2013-08-14 07:12:00,52.2,49.9,30.18,ESE,122,1.0,1.0,92,0.00,,,0.00,Wunderground v.1.15,2013-08-14 12:12:00,
2013-08-14 07:17:00,52.8,50.2,30.18,ESE,122,1.0,1.0,91,0.00,,,0.00,Wunderground v.1.15,2013-08-14 12:17:00,
2013-08-14 07:22:00,53.1,50.5,30.18,ESE,122,0.0,2.0,91,0.00,,,0.00,Wunderground v.1.15,2013-08-14 12:22:00,
2013-08-14 07:27:00,53.3,51.0,30.18,ESE,122,0.0,1.0,92,0.00,,,0.00,Wunderground v.1.15,2013-08-14 12:27:00,
2013-08-14 07:32:00,53.8,51.2,30.18,ESE,122,1.0,2.0,91,0.00,,,0.00,Wunderground v.1.15,2013-08-14 12:32:00,
2013-08-14 07:37:00,54.2,51.6,30.18,ESE,122,1.0,2.0,91,0.00,,,0.00,Wunderground v.1.15,2013-08-14 12:37:00,
2013-08-14 07:42:00,54.5,51.6,30.18,ESE,122,2.0,2.0,90,0.00,,,0.00,Wunderground v.1.15,2013-08-14 12:42:00,
2013-08-14 07:47:00,54.7,51.5,30.18,ESE,122,1.0,2.0,89,0.00,,,0.00,Wunderground v.1.15,2013-08-14 12:47:00,
2013-08-14 07:52:00,54.9,51.7,30.18,ESE,115,1.0,2.0,89,0.00,,,0.00,Wunderground v.1.15,2013-08-14 12:52:00,
2013-08-14 07:57:00,55.1,52.5,30.18,ESE,122,0.0,1.0,91,0.00,,,0.00,Wunderground v.1.15,2013-08-14 12:57:00,
2013-08-14 08:02:00,54.9,52.0,30.18,ESE,122,1.0,2.0,90,0.00,,,0.00,Wunderground v.1.15,2013-08-14 13:02:00,
2013-08-14 08:07:00,54.6,52.0,30.18,ESE,122,1.0,1.0,91,0.00,,,0.00,Wunderground v.1.15,2013-08-14 13:07:00,
2013-08-14 08:12:00,54.9,52.6,30.18,ESE,122,0.0,2.0,92,0.00,,,0.00,Wunderground v.1.15,2013-08-14 13:12:00,
2013-08-14 08:17:00,55.7,52.8,30.18,ESE,122,0.0,2.0,90,0.00,,,0.00,Wunderground v.1.15,2013-08-14 13:17:00,
2013-08-14 08:22:00,56.2,53.0,30.17,East,98,1.0,3.0,89,0.00,,,0.00,Wunderground v.1.15,2013-08-14 13:22:00,
2013-08-14 08:27:00,56.5,53.3,30.17,ESE,103,1.0,2.0,89,0.00,,,0.00,Wunderground v.1.15,2013-08-14 13:27:00,
2013-08-14 08:32:00,56.9,53.1,30.17,ESE,123,2.0,3.0,87,0.00,,,0.00,Wunderground v.1.15,2013-08-14 13:32:00,
2013-08-14 08:37:00,57.3,53.5,30.17,SE,136,3.0,4.0,87,0.00,,,0.00,Wunderground v.1.15,2013-08-14 13:37:00,
2013-08-14 08:42:00,57.8,54.6,30.17,SE,144,2.0,4.0,89,0.00,,,0.00,Wunderground v.1.15,2013-08-14 13:42:00,
2013-08-14 08:47:00,58.3,54.1,30.17,SSE,155,2.0,5.0,86,0.00,,,0.00,Wunderground v.1.15,2013-08-14 13:47:00,
2013-08-14 08:52:00,58.5,54.6,30.17,SSE,148,3.0,5.0,87,0.00,,,0.00,Wunderground v.1.15,2013-08-14 13:52:00,
2013-08-14 08:57:00,59.0,55.1,30.18,SSE,150,3.0,5.0,87,0.00,,,0.00,Wunderground v.1.15,2013-08-14 13:57:00,
2013-08-14 09:02:00,59.0,55.1,30.18,South,182,3.0,5.0,87,0.00,,,0.00,Wunderground v.1.15,2013-08-14 14:02:00,
2013-08-14 09:07:00,59.3,55.4,30.18,South,171,1.0,4.0,87,0.00,,,0.00,Wunderground v.1.15,2013-08-14 14:07:00,
2013-08-14 09:12:00,59.8,55.3,30.18,SSE,165,4.0,5.0,85,0.00,,,0.00,Wunderground v.1.15,2013-08-14 14:12:00,
2013-08-14 09:17:00,60.3,55.8,30.18,SSE,165,4.0,7.0,85,0.00,,,0.00,Wunderground v.1.15,2013-08-14 14:17:00,
2013-08-14 09:22:00,60.5,56.3,30.18,SSW,192,3.0,7.0,86,0.00,,,0.00,Wunderground v.1.15,2013-08-14 14:22:00,
2013-08-14 09:27:00,60.8,55.3,30.18,SSE,164,2.0,5.0,82,0.00,,,0.00,Wunderground v.1.15,2013-08-14 14:27:00,
2013-08-14 09:32:00,61.5,56.0,30.18,South,179,4.0,6.0,82,0.00,,,0.00,Wunderground v.1.15,2013-08-14 14:32:00,
2013-08-14 09:37:00,62.5,56.2,30.18,SSE,147,3.0,6.0,80,0.00,,,0.00,Wunderground v.1.15,2013-08-14 14:37:00,
2013-08-14 09:42:00,62.7,56.1,30.18,South,169,6.0,6.0,79,0.00,,,0.00,Wunderground v.1.15,2013-08-14 14:42:00,
2013-08-14 09:47:00,63.5,56.5,30.18,South,186,5.0,7.0,78,0.00,,,0.00,Wunderground v.1.15,2013-08-14 14:47:00,
2013-08-14 09:52:00,64.2,55.7,30.18,South,189,5.0,9.0,74,0.00,,,0.00,Wunderground v.1.15,2013-08-14 14:52:00,
2013-08-14 09:57:00,64.9,57.5,30.18,SSW,192,5.0,7.0,77,0.00,,,0.00,Wunderground v.1.15,2013-08-14 14:57:00,
2013-08-14 10:02:00,65.7,56.4,30.18,SSW,192,5.0,9.0,72,0.00,,,0.00,Wunderground v.1.15,2013-08-14 15:02:00,
2013-08-14 10:07:00,66.3,56.2,30.18,South,185,7.0,10.0,70,0.00,,,0.00,Wunderground v.1.15,2013-08-14 15:07:00,
2013-08-14 10:12:00,67.0,56.5,30.18,South,169,7.0,10.0,69,0.00,,,0.00,Wunderground v.1.15,2013-08-14 15:12:00,
2013-08-14 10:17:00,67.2,56.3,30.18,SSE,166,7.0,9.0,68,0.00,,,0.00,Wunderground v.1.15,2013-08-14 15:17:00,
2013-08-14 10:23:00,68.0,57.0,30.18,SSE,162,7.0,10.0,68,0.00,,,0.00,Wunderground v.1.15,2013-08-14 15:23:00,
2013-08-14 10:28:00,68.3,56.5,30.18,South,189,4.0,10.0,66,0.00,,,0.00,Wunderground v.1.15,2013-08-14 15:28:00,
2013-08-14 10:33:00,68.9,55.8,30.18,SE,144,6.0,11.0,63,0.00,,,0.00,Wunderground v.1.15,2013-08-14 15:33:00,
2013-08-14 10:38:00,69.0,55.9,30.18,SSE,153,7.0,16.0,63,0.00,,,0.00,Wunderground v.1.15,2013-08-14 15:38:00,
2013-08-14 10:42:00,69.3,56.2,30.18,SSW,213,7.0,16.0,63,0.00,,,0.00,Wunderground v.1.15,2013-08-14 15:42:00,
2013-08-14 10:48:00,69.9,57.6,30.18,SSE,164,9.0,10.0,65,0.00,,,0.00,Wunderground v.1.15,2013-08-14 15:48:00,
2013-08-14 10:54:00,69.9,56.7,30.18,South,184,9.0,14.0,63,0.00,,,0.00,Wunderground v.1.15,2013-08-14 15:54:00,
2013-08-14 10:59:00,69.9,55.4,30.18,South,171,9.0,13.0,60,0.00,,,0.00,Wunderground v.1.15,2013-08-14 15:59:00,
2013-08-14 11:04:00,70.3,54.8,30.18,South,178,5.0,14.0,58,0.00,,,0.00,Wunderground v.1.15,2013-08-14 16:04:00,
2013-08-14 11:09:00,70.6,56.5,30.18,South,180,9.0,12.0,61,0.00,,,0.00,Wunderground v.1.15,2013-08-14 16:09:00,
2013-08-14 11:14:00,71.2,55.2,30.17,South,184,11.0,14.0,57,0.00,,,0.00,Wunderground v.1.15,2013-08-14 16:14:00,
2013-08-14 11:19:00,70.3,54.8,30.17,SSW,205,12.0,14.0,58,0.00,,,0.00,Wunderground v.1.15,2013-08-14 16:19:00,
2013-08-14 11:24:00,70.4,55.8,30.17,SSW,207,6.0,14.0,60,0.00,,,0.00,Wunderground v.1.15,2013-08-14 16:24:00,
2013-08-14 11:29:00,70.9,55.9,30.17,SSE,150,5.0,13.0,59,0.00,,,0.00,Wunderground v.1.15,2013-08-14 16:29:00,
2013-08-14 11:34:00,69.9,54.9,30.17,South,187,9.0,13.0,59,0.00,,,0.00,Wunderground v.1.15,2013-08-14 16:34:00,
2013-08-14 11:39:00,69.8,54.8,30.17,SSE,155,9.0,10.0,59,0.00,,,0.00,Wunderground v.1.15,2013-08-14 16:39:00,
2013-08-14 11:44:00,70.4,55.4,30.17,SSE,153,9.0,14.0,59,0.00,,,0.00,Wunderground v.1.15,2013-08-14 16:44:00,
2013-08-14 11:50:00,71.1,56.5,30.16,South,172,10.0,11.0,60,0.00,,,0.00,Wunderground v.1.15,2013-08-14 16:50:00,
2013-08-14 11:55:00,70.7,54.7,30.16,SSW,196,9.0,9.0,57,0.00,,,0.00,Wunderground v.1.15,2013-08-14 16:55:00,
2013-08-14 12:00:00,70.6,54.6,30.16,South,176,5.0,12.0,57,0.00,,,0.00,Wunderground v.1.15,2013-08-14 17:00:00,
2013-08-14 12:05:00,71.7,55.2,30.16,South,173,6.0,7.0,56,0.00,,,0.00,Wunderground v.1.15,2013-08-14 17:05:00,
2013-08-14 12:10:00,70.6,55.1,30.16,SSW,198,5.0,12.0,58,0.00,,,0.00,Wunderground v.1.15,2013-08-14 17:10:00,
2013-08-14 12:15:00,71.1,54.6,30.16,South,180,3.0,7.0,56,0.00,,,0.00,Wunderground v.1.15,2013-08-14 17:15:00,
2013-08-14 12:20:00,71.3,56.7,30.16,SSW,208,7.0,13.0,60,0.00,,,0.00,Wunderground v.1.15,2013-08-14 17:20:00,
2013-08-14 12:25:00,71.1,55.6,30.16,SE,138,8.0,8.0,58,0.00,,,0.00,Wunderground v.1.15,2013-08-14 17:25:00,
2013-08-14 12:30:00,71.5,54.5,30.16,South,186,6.0,14.0,55,0.00,,,0.00,Wunderground v.1.15,2013-08-14 17:30:00,
2013-08-14 12:36:00,70.9,54.4,30.15,SE,136,7.0,12.0,56,0.00,,,0.00,Wunderground v.1.15,2013-08-14 17:36:00,
2013-08-14 12:41:00,70.6,55.1,30.15,ESE,123,12.0,12.0,58,0.00,,,0.00,Wunderground v.1.15,2013-08-14 17:41:00,
2013-08-14 12:46:00,70.6,55.1,30.15,South,173,7.0,8.0,58,0.00,,,0.00,Wunderground v.1.15,2013-08-14 17:46:00,
2013-08-14 12:51:00,70.6,54.6,30.15,SE,126,5.0,12.0,57,0.00,,,0.00,Wunderground v.1.15,2013-08-14 17:51:00,
2013-08-14 12:56:00,70.6,54.6,30.15,SSE,160,5.0,11.0,57,0.00,,,0.00,Wunderground v.1.15,2013-08-14 17:56:00,
2013-08-14 13:01:00,71.5,56.9,30.15,SSE,151,8.0,11.0,60,0.00,,,0.00,Wunderground v.1.15,2013-08-14 18:01:00,
2013-08-14 13:06:00,72.2,55.6,30.14,SW,216,5.0,12.0,56,0.00,,,0.00,Wunderground v.1.15,2013-08-14 18:06:00,
2013-08-14 13:11:00,72.2,55.1,30.14,SSW,197,6.0,12.0,55,0.00,,,0.00,Wunderground v.1.15,2013-08-14 18:11:00,
2013-08-14 13:16:00,71.5,55.5,30.14,SSW,198,9.0,10.0,57,0.00,,,0.00,Wunderground v.1.15,2013-08-14 18:16:00,
2013-08-14 13:21:00,71.2,54.7,30.14,South,186,6.0,11.0,56,0.00,,,0.00,Wunderground v.1.15,2013-08-14 18:21:00,
2013-08-14 13:26:00,71.1,55.1,30.14,South,182,4.0,7.0,57,0.00,,,0.00,Wunderground v.1.15,2013-08-14 18:26:00,
2013-08-14 13:33:00,70.7,54.7,30.14,SSE,162,10.0,11.0,57,0.00,,,0.00,Wunderground v.1.15,2013-08-14 18:33:00,
2013-08-14 13:38:00,71.2,56.1,30.13,SSE,166,6.0,10.0,59,0.00,,,0.00,Wunderground v.1.15,2013-08-14 18:38:00,
2013-08-14 13:43:00,71.5,55.5,30.13,SSW,197,7.0,11.0,57,0.00,,,0.00,Wunderground v.1.15,2013-08-14 18:43:00,
2013-08-14 13:48:00,72.2,55.6,30.13,SSW,207,4.0,9.0,56,0.00,,,0.00,Wunderground v.1.15,2013-08-14 18:48:00,
2013-08-14 13:53:00,72.8,54.7,30.13,SSW,207,9.0,12.0,53,0.00,,,0.00,Wunderground v.1.15,2013-08-14 18:53:00,
2013-08-14 13:58:00,73.3,55.6,30.13,SSE,150,9.0,14.0,54,0.00,,,0.00,Wunderground v.1.15,2013-08-14 18:58:00,
2013-08-14 14:03:00,73.0,55.4,30.13,SSW,194,10.0,14.0,54,0.00,,,0.00,Wunderground v.1.15,2013-08-14 19:03:00,
2013-08-14 14:08:00,72.0,54.4,30.13,SW,219,9.0,11.0,54,0.00,,,0.00,Wunderground v.1.15,2013-08-14 19:08:00,
2013-08-14 14:13:00,71.9,54.3,30.13,SSW,209,8.0,11.0,54,0.00,,,0.00,Wunderground v.1.15,2013-08-14 19:13:00,
2013-08-14 14:18:00,73.3,55.1,30.13,SSE,167,4.0,9.0,53,0.00,,,0.00,Wunderground v.1.15,2013-08-14 19:18:00,
2013-08-14 14:23:00,73.1,53.4,30.12,SSW,207,7.0,9.0,50,0.00,,,0.00,Wunderground v.1.15,2013-08-14 19:23:00,
2013-08-14 14:29:00,73.2,54.0,30.13,SSW,211,4.0,9.0,51,0.00,,,0.00,Wunderground v.1.15,2013-08-14 19:29:00,
2013-08-14 14:34:00,73.9,54.1,30.12,SSE,168,12.0,12.0,50,0.00,,,0.00,Wunderground v.1.15,2013-08-14 19:34:00,
2013-08-14 14:39:00,74.7,56.4,30.12,South,187,4.0,10.0,53,0.00,,,0.00,Wunderground v.1.15,2013-08-14 19:39:00,
2013-08-14 14:45:00,74.7,56.9,30.12,SSW,200,6.0,6.0,54,0.00,,,0.00,Wunderground v.1.15,2013-08-14 19:45:00,
2013-08-14 14:50:00,73.9,55.2,30.12,SSW,199,7.0,10.0,52,0.00,,,0.00,Wunderground v.1.15,2013-08-14 19:50:00,
2013-08-14 14:56:00,73.7,55.0,30.12,WSW,237,4.0,6.0,52,0.00,,,0.00,Wunderground v.1.15,2013-08-14 19:56:00,
2013-08-14 15:01:00,73.4,54.7,30.12,SSW,202,7.0,11.0,52,0.00,,,0.00,Wunderground v.1.15,2013-08-14 20:01:00,
2013-08-14 15:06:00,73.0,54.3,30.12,SSW,192,3.0,6.0,52,0.00,,,0.00,Wunderground v.1.15,2013-08-14 20:06:00,
2013-08-14 15:11:00,72.8,55.7,30.12,SW,229,8.0,8.0,55,0.00,,,0.00,Wunderground v.1.15,2013-08-14 20:11:00,
2013-08-14 15:16:00,72.9,54.8,30.11,SW,219,6.0,8.0,53,0.00,,,0.00,Wunderground v.1.15,2013-08-14 20:16:00,
2013-08-14 15:22:00,72.2,55.1,30.11,SSW,213,5.0,11.0,55,0.00,,,0.00,Wunderground v.1.15,2013-08-14 20:22:00,
2013-08-14 15:27:00,72.0,53.9,30.11,SW,216,3.0,10.0,53,0.00,,,0.00,Wunderground v.1.15,2013-08-14 20:27:00,
2013-08-14 15:33:00,71.9,55.8,30.11,South,180,8.0,10.0,57,0.00,,,0.00,Wunderground v.1.15,2013-08-14 20:33:00,
2013-08-14 15:38:00,71.8,55.7,30.11,SW,220,4.0,8.0,57,0.00,,,0.00,Wunderground v.1.15,2013-08-14 20:38:00,
2013-08-14 15:43:00,72.0,55.4,30.11,SW,224,4.0,8.0,56,0.00,,,0.00,Wunderground v.1.15,2013-08-14 20:43:00,
2013-08-14 15:48:00,72.6,57.0,30.11,SSW,208,5.0,9.0,58,0.00,,,0.00,Wunderground v.1.15,2013-08-14 20:48:00,
2013-08-14 15:54:00,72.9,55.3,30.11,SW,229,8.0,10.0,54,0.00,,,0.00,Wunderground v.1.15,2013-08-14 20:54:00,
2013-08-14 15:59:00,73.3,56.2,30.11,SW,225,9.0,12.0,55,0.00,,,0.00,Wunderground v.1.15,2013-08-14 20:59:00,
2013-08-14 16:04:00,73.5,56.3,30.11,SW,214,4.0,12.0,55,0.00,,,0.00,Wunderground v.1.15,2013-08-14 21:04:00,
2013-08-14 16:09:00,73.3,56.7,30.11,SSW,197,5.0,9.0,56,0.00,,,0.00,Wunderground v.1.15,2013-08-14 21:09:00,
2013-08-14 16:14:00,73.4,55.2,30.10,SSW,192,4.0,9.0,53,0.00,,,0.00,Wunderground v.1.15,2013-08-14 21:14:00,
2013-08-14 16:19:00,73.2,56.6,30.10,SW,216,6.0,9.0,56,0.00,,,0.00,Wunderground v.1.15,2013-08-14 21:19:00,
2013-08-14 16:24:00,72.8,56.2,30.10,SSW,195,4.0,9.0,56,0.00,,,0.00,Wunderground v.1.15,2013-08-14 21:24:00,
2013-08-14 16:29:00,72.8,56.7,30.10,SSW,212,5.0,7.0,57,0.00,,,0.00,Wunderground v.1.15,2013-08-14 21:29:00,
2013-08-14 16:34:00,72.9,54.8,30.10,SW,225,5.0,7.0,53,0.00,,,0.00,Wunderground v.1.15,2013-08-14 21:34:00,
2013-08-14 16:39:00,72.8,55.7,30.10,SW,236,4.0,8.0,55,0.00,,,0.00,Wunderground v.1.15,2013-08-14 21:39:00,
2013-08-14 16:44:00,72.8,55.7,30.09,WSW,248,3.0,8.0,55,0.00,,,0.00,Wunderground v.1.15,2013-08-14 21:44:00,
2013-08-14 16:50:00,73.0,56.4,30.10,SSW,206,4.0,9.0,56,0.00,,,0.00,Wunderground v.1.15,2013-08-14 21:50:00,
2013-08-14 16:55:00,72.2,57.1,30.09,SSW,194,6.0,6.0,59,0.00,,,0.00,Wunderground v.1.15,2013-08-14 21:55:00,
2013-08-14 17:00:00,71.9,56.8,30.09,SSW,196,5.0,8.0,59,0.00,,,0.00,Wunderground v.1.15,2013-08-14 22:00:00,
2013-08-14 17:05:00,71.7,56.6,30.09,South,185,4.0,8.0,59,0.00,,,0.00,Wunderground v.1.15,2013-08-14 22:05:00,
2013-08-14 17:10:00,71.7,57.1,30.10,SW,217,7.0,10.0,60,0.00,,,0.00,Wunderground v.1.15,2013-08-14 22:10:00,
2013-08-14 17:15:00,71.6,56.5,30.09,South,191,6.0,6.0,59,0.00,,,0.00,Wunderground v.1.15,2013-08-14 22:15:00,
2013-08-14 17:20:00,71.4,57.7,30.09,SW,216,6.0,9.0,62,0.00,,,0.00,Wunderground v.1.15,2013-08-14 22:20:00,
2013-08-14 17:25:00,71.1,58.3,30.09,SSW,201,6.0,8.0,64,0.00,,,0.00,Wunderground v.1.15,2013-08-14 22:25:00,
2013-08-14 17:30:00,70.9,58.1,30.10,SW,224,8.0,8.0,64,0.00,,,0.00,Wunderground v.1.15,2013-08-14 22:30:00,
2013-08-14 17:35:00,70.8,59.3,30.09,SW,227,5.0,7.0,67,0.00,,,0.00,Wunderground v.1.15,2013-08-14 22:35:00,
2013-08-14 17:40:00,70.8,58.9,30.09,SW,216,7.0,10.0,66,0.00,,,0.00,Wunderground v.1.15,2013-08-14 22:40:00,
2013-08-14 17:46:00,70.8,58.9,30.09,SW,225,8.0,9.0,66,0.00,,,0.00,Wunderground v.1.15,2013-08-14 22:46:00,
2013-08-14 17:51:00,70.7,58.8,30.09,SW,218,6.0,9.0,66,0.00,,,0.00,Wunderground v.1.15,2013-08-14 22:51:00,
2013-08-14 17:56:00,70.5,59.0,30.09,SSW,198,5.0,8.0,67,0.00,,,0.00,Wunderground v.1.15,2013-08-14 22:56:00,
2013-08-14 18:01:00,70.3,59.2,30.09,SW,219,4.0,8.0,68,0.00,,,0.00,Wunderground v.1.15,2013-08-14 23:01:00,
2013-08-14 18:06:00,70.2,60.0,30.09,SW,219,4.0,5.0,70,0.00,,,0.00,Wunderground v.1.15,2013-08-14 23:06:00,
2013-08-14 18:11:00,69.9,58.9,30.09,SW,225,6.0,7.0,68,0.00,,,0.00,Wunderground v.1.15,2013-08-14 23:11:00,
2013-08-14 18:16:00,69.7,59.9,30.09,SW,227,6.0,7.0,71,0.00,,,0.00,Wunderground v.1.15,2013-08-14 23:16:00,
2013-08-14 18:21:00,69.5,60.1,30.09,SW,225,6.0,7.0,72,0.00,,,0.00,Wunderground v.1.15,2013-08-14 23:21:00,
2013-08-14 18:26:00,69.4,60.4,30.09,SW,227,6.0,8.0,73,0.00,,,0.00,Wunderground v.1.15,2013-08-14 23:26:00,
2013-08-14 18:31:00,69.4,60.8,30.09,SW,230,7.0,8.0,74,0.00,,,0.00,Wunderground v.1.15,2013-08-14 23:31:00,
2013-08-14 18:36:00,69.3,59.9,30.08,SSW,207,6.0,10.0,72,0.00,,,0.00,Wunderground v.1.15,2013-08-14 23:36:00,
2013-08-14 18:41:00,69.3,60.3,30.09,SW,232,5.0,11.0,73,0.00,,,0.00,Wunderground v.1.15,2013-08-14 23:41:00,
2013-08-14 18:46:00,69.2,59.0,30.09,SW,225,5.0,9.0,70,0.00,,,0.00,Wunderground v.1.15,2013-08-14 23:46:00,
2013-08-14 18:51:00,69.0,58.8,30.08,WSW,237,9.0,10.0,70,0.00,,,0.00,Wunderground v.1.15,2013-08-14 23:51:00,
2013-08-14 18:56:00,69.0,58.8,30.08,SW,223,5.0,7.0,70,0.00,,,0.00,Wunderground v.1.15,2013-08-14 23:56:00,
2013-08-14 19:01:00,69.1,59.3,30.08,SW,231,4.0,8.0,71,0.00,,,0.00,Wunderground v.1.15,2013-08-15 00:01:00,
2013-08-14 19:06:00,68.9,58.7,30.08,WSW,237,5.0,7.0,70,0.00,,,0.00,Wunderground v.1.15,2013-08-15 00:06:00,
2013-08-14 19:12:00,68.6,58.8,30.08,SW,231,3.0,7.0,71,0.00,,,0.00,Wunderground v.1.15,2013-08-15 00:12:00,
2013-08-14 19:17:00,68.5,58.7,30.08,SW,235,2.0,5.0,71,0.00,,,0.00,Wunderground v.1.15,2013-08-15 00:17:00,
2013-08-14 19:22:00,67.9,58.9,30.08,SW,232,4.0,5.0,73,0.00,,,0.00,Wunderground v.1.15,2013-08-15 00:22:00,
2013-08-14 19:27:00,67.4,59.2,30.08,SW,232,2.0,4.0,75,0.00,,,0.00,Wunderground v.1.15,2013-08-15 00:27:00,
2013-08-14 19:32:00,66.8,59.0,30.08,SW,232,2.0,4.0,76,0.00,,,0.00,Wunderground v.1.15,2013-08-15 00:32:00,
2013-08-14 19:37:00,66.3,59.2,30.08,SW,232,3.0,3.0,78,0.00,,,0.00,Wunderground v.1.15,2013-08-15 00:37:00,
2013-08-14 19:42:00,65.8,59.5,30.08,SW,232,2.0,3.0,80,0.00,,,0.00,Wunderground v.1.15,2013-08-15 00:42:00,
2013-08-14 19:47:00,65.3,59.3,30.08,SW,232,2.0,3.0,81,0.00,,,0.00,Wunderground v.1.15,2013-08-15 00:47:00,
2013-08-14 19:52:00,64.8,59.2,30.08,SW,232,2.0,3.0,82,0.00,,,0.00,Wunderground v.1.15,2013-08-15 00:52:00,
2013-08-14 19:57:00,64.5,59.2,30.08,SW,232,2.0,3.0,83,0.00,,,0.00,Wunderground v.1.15,2013-08-15 00:57:00,
2013-08-14 20:02:00,64.1,59.2,30.08,WSW,254,4.0,4.0,84,0.00,,,0.00,Wunderground v.1.15,2013-08-15 01:02:00,
2013-08-14 20:07:00,63.8,59.2,30.08,SW,230,4.0,5.0,85,0.00,,,0.00,Wunderground v.1.15,2013-08-15 01:07:00,
2013-08-14 20:12:00,63.5,58.9,30.09,SW,236,4.0,7.0,85,0.00,,,0.00,Wunderground v.1.15,2013-08-15 01:12:00,
2013-08-14 20:17:00,63.2,58.9,30.09,WSW,238,3.0,7.0,86,0.00,,,0.00,Wunderground v.1.15,2013-08-15 01:17:00,
2013-08-14 20:22:00,62.9,58.6,30.09,WSW,253,4.0,8.0,86,0.00,,,0.00,Wunderground v.1.15,2013-08-15 01:22:00,
2013-08-14 20:27:00,62.5,58.6,30.09,West,262,3.0,6.0,87,0.00,,,0.00,Wunderground v.1.15,2013-08-15 01:27:00,
2013-08-14 20:32:00,62.2,58.6,30.09,West,264,3.0,6.0,88,0.00,,,0.00,Wunderground v.1.15,2013-08-15 01:32:00,
2013-08-14 20:37:00,61.9,58.3,30.09,West,263,2.0,4.0,88,0.00,,,0.00,Wunderground v.1.15,2013-08-15 01:37:00,
2013-08-14 20:42:00,61.6,58.3,30.09,West,265,2.0,4.0,89,0.00,,,0.00,Wunderground v.1.15,2013-08-15 01:42:00,
2013-08-14 20:47:00,61.3,58.3,30.09,West,265,2.0,3.0,90,0.00,,,0.00,Wunderground v.1.15,2013-08-15 01:47:00,
2013-08-14 20:52:00,61.0,58.0,30.09,West,265,1.0,3.0,90,0.00,,,0.00,Wunderground v.1.15,2013-08-15 01:52:00,
2013-08-14 20:57:00,60.7,57.7,30.09,West,265,1.0,3.0,90,0.00,,,0.00,Wunderground v.1.15,2013-08-15 01:57:00,
2013-08-14 21:02:00,60.5,57.9,30.09,West,265,2.0,3.0,91,0.00,,,0.00,Wunderground v.1.15,2013-08-15 02:02:00,
2013-08-14 21:07:00,60.3,57.7,30.09,West,265,2.0,3.0,91,0.00,,,0.00,Wunderground v.1.15,2013-08-15 02:07:00,
2013-08-14 21:12:00,60.0,57.4,30.09,West,265,2.0,3.0,91,0.00,,,0.00,Wunderground v.1.15,2013-08-15 02:12:00,
2013-08-14 21:17:00,59.8,57.5,30.09,West,265,1.0,2.0,92,0.00,,,0.00,Wunderground v.1.15,2013-08-15 02:17:00,
2013-08-14 21:22:00,59.7,57.4,30.09,West,265,1.0,2.0,92,0.00,,,0.00,Wunderground v.1.15,2013-08-15 02:22:00,
2013-08-14 21:27:00,59.7,57.4,30.09,West,265,1.0,2.0,92,0.00,,,0.00,Wunderground v.1.15,2013-08-15 02:27:00,
2013-08-14 21:32:00,59.6,57.3,30.09,West,265,0.0,2.0,92,0.00,,,0.00,Wunderground v.1.15,2013-08-15 02:32:00,
2013-08-14 21:37:00,59.6,57.6,30.09,West,265,0.0,1.0,93,0.00,,,0.00,Wunderground v.1.15,2013-08-15 02:37:00,
2013-08-14 21:42:00,59.8,57.8,30.09,West,265,0.0,1.0,93,0.00,,,0.00,Wunderground v.1.15,2013-08-15 02:42:00,
2013-08-14 21:47:00,60.0,58.0,30.09,West,265,0.0,0.0,93,0.00,,,0.00,Wunderground v.1.15,2013-08-15 02:47:00,
2013-08-14 21:53:00,60.3,58.0,30.09,West,265,0.0,0.0,92,0.00,,,0.00,Wunderground v.1.15,2013-08-15 02:53:00,
2013-08-14 21:58:00,60.7,58.4,30.09,West,265,0.0,0.0,92,0.00,,,0.00,Wunderground v.1.15,2013-08-15 02:58:00,
2013-08-14 22:03:00,60.4,57.1,30.09,NE,38,1.0,3.0,89,0.00,,,0.00,Wunderground v.1.15,2013-08-15 03:03:00,
2013-08-14 22:08:00,59.4,56.8,30.09,NE,38,2.0,2.0,91,0.00,,,0.00,Wunderground v.1.15,2013-08-15 03:08:00,
2013-08-14 22:13:00,58.7,56.1,30.09,NE,38,2.0,3.0,91,0.00,,,0.00,Wunderground v.1.15,2013-08-15 03:13:00,
2013-08-14 22:18:00,58.1,56.1,30.09,NE,38,2.0,3.0,93,0.00,,,0.00,Wunderground v.1.15,2013-08-15 03:18:00,
2013-08-14 22:23:00,57.8,55.8,30.09,NE,38,2.0,3.0,93,0.00,,,0.00,Wunderground v.1.15,2013-08-15 03:23:00,
2013-08-14 22:28:00,57.6,55.9,30.09,NE,38,2.0,2.0,94,0.00,,,0.00,Wunderground v.1.15,2013-08-15 03:28:00,
2013-08-14 22:33:00,57.6,55.9,30.09,NE,38,3.0,3.0,94,0.00,,,0.00,Wunderground v.1.15,2013-08-15 03:33:00,
2013-08-14 22:38:00,57.4,55.7,30.09,NE,38,2.0,3.0,94,0.00,,,0.00,Wunderground v.1.15,2013-08-15 03:38:00,
2013-08-14 22:43:00,57.3,55.6,30.09,NE,37,2.0,3.0,94,0.00,,,0.00,Wunderground v.1.15,2013-08-15 03:43:00,
2013-08-14 22:48:00,56.8,54.8,30.09,NE,37,2.0,3.0,93,0.00,,,0.00,Wunderground v.1.15,2013-08-15 03:48:00,
2013-08-14 22:53:00,56.7,55.3,30.09,NE,37,2.0,3.0,95,0.00,,,0.00,Wunderground v.1.15,2013-08-15 03:53:00,
2013-08-14 22:58:00,56.8,55.4,30.09,NE,38,2.0,3.0,95,0.00,,,0.00,Wunderground v.1.15,2013-08-15 03:58:00,
2013-08-14 23:01:00,56.9,55.5,30.09,NE,38,2.0,3.0,95,0.00,,,0.00,Wunderground v.1.15,2013-08-15 04:01:00,
2013-08-14 23:06:00,57.0,55.6,30.09,NE,37,2.0,3.0,95,0.00,,,0.00,Wunderground v.1.15,2013-08-15 04:06:00,
2013-08-14 23:11:00,56.9,55.5,30.10,NE,37,2.0,3.0,95,0.00,,,0.00,Wunderground v.1.15,2013-08-15 04:11:00,
2013-08-14 23:16:00,57.0,55.9,30.09,NE,37,2.0,3.0,96,0.00,,,0.00,Wunderground v.1.15,2013-08-15 04:16:00,
2013-08-14 23:21:00,57.1,56.0,30.09,NE,53,3.0,4.0,96,0.00,,,0.00,Wunderground v.1.15,2013-08-15 04:21:00,
2013-08-14 23:26:00,57.3,56.2,30.10,ENE,67,2.0,4.0,96,0.00,,,0.00,Wunderground v.1.15,2013-08-15 04:26:00,
2013-08-14 23:31:00,57.4,56.3,30.10,ENE,65,3.0,4.0,96,0.00,,,0.00,Wunderground v.1.15,2013-08-15 04:31:00,
2013-08-14 23:36:00,57.3,56.2,30.10,ENE,65,3.0,3.0,96,0.00,,,0.00,Wunderground v.1.15,2013-08-15 04:36:00,
2013-08-14 23:41:00,57.3,56.2,30.10,ENE,65,2.0,3.0,96,0.00,,,0.00,Wunderground v.1.15,2013-08-15 04:41:00,
2013-08-14 23:46:00,57.3,56.2,30.10,ENE,65,2.0,3.0,96,0.00,,,0.00,Wunderground v.1.15,2013-08-15 04:46:00,
2013-08-14 23:51:00,57.8,56.7,30.10,ENE,65,2.0,3.0,96,0.00,,,0.00,Wunderground v.1.15,2013-08-15 04:51:00,
2013-08-14 23:56:00,58.1,57.0,30.10,ENE,65,2.0,3.0,96,0.00,,,0.00,Wunderground v.1.15,2013-08-15 04:56:00,